Buoy 41997

sailwx.info

Track history (hours):
 
Tides and Currents Weather Stations Pressure Air Temp Water Temp Dewpoint Dewpoint Depression Visibility Wind Speed Wind Dir Waves Ship Positions

Drifting buoy 41997

Last reported at 2014-Sep-20 21:00 UTC. Time now 2014-Sep-20 22:05 UTC.
Position N 28°52' W 032°43'.

Water temperature 27.7 ° C

Date/timePositionNaut miles runAvg speedWind from/ knotsBaromVisibWave heightAir tempDewpointWater temp
2014-Sep-20 21:00N 28°52' W 032°43'1 1.1 27.7
2014-Sep-20 20:15N 28°51' W 032°44'1 1.1 28.0
2014-Sep-20 19:30N 28°52' W 032°43'1 3.3 28.2
2014-Sep-20 19:15N 28°51' W 032°44'0 0.2 28.3
2014-Sep-20 18:45N 28°51' W 032°44'2 2.2 28.5
2014-Sep-20 18:00N 28°52' W 032°42'0 0.0 28.5
2014-Sep-20 15:45N 28°52' W 032°42'1 0.4 28.9
2014-Sep-20 14:00N 28°53' W 032°42'1 0.6 28.0
2014-Sep-20 12:30N 28°53' W 032°42'1 0.9 27.3
2014-Sep-20 11:45N 28°54' W 032°42'1 0.7 27.1
2014-Sep-20 11:00N 28°54' W 032°42'0 0.0 27.0
2014-Sep-20 10:45N 28°54' W 032°42'0 0.0 27.0
2014-Sep-20 09:00N 28°54' W 032°42'0 0.2 26.9
2014-Sep-20 08:45N 28°54' W 032°42'0 0.0 26.9
2014-Sep-20 07:30N 28°54' W 032°42'0 1.0 26.9
2014-Sep-20 07:15N 28°54' W 032°42'0 0.0 26.9
2014-Sep-20 07:00N 28°54' W 032°42'1 2.7 26.9
2014-Sep-20 06:45N 28°54' W 032°43'1 2.2 26.9
2014-Sep-20 06:30N 28°53' W 032°43'1 0.5 27.0
2014-Sep-20 04:30N 28°53' W 032°42'0 0.0 26.9
2014-Sep-20 04:15N 28°53' W 032°42'0 0.0 27.0
2014-Sep-20 00:15N 28°53' W 032°42'0 0.5 27.0
2014-Sep-19 23:30N 28°53' W 032°42'0 0.8 27.0
2014-Sep-19 23:15N 28°53' W 032°41'1 1.1 27.0
2014-Sep-19 22:30N 28°53' W 032°40'0 0.2 27.0
2014-Sep-19 19:45N 28°53' W 032°40'0 0.8 27.1
2014-Sep-19 19:15N 28°53' W 032°40'0 0.0 27.1
2014-Sep-19 19:00N 28°53' W 032°40'0 0.6 27.1
2014-Sep-19 18:15N 28°53' W 032°39'0 0.0 27.2
2014-Sep-19 18:00N 28°53' W 032°39'0 0.2 27.2
2014-Sep-19 16:00N 28°53' W 032°39'0 0.0 27.1
2014-Sep-19 15:45N 28°53' W 032°39'1 0.4 27.1
2014-Sep-19 14:15N 28°53' W 032°39'1 0.7 27.0
2014-Sep-19 12:15N 28°53' W 032°38'1 2.6 26.9
2014-Sep-19 12:00N 28°54' W 032°38'0 0.3 26.9
2014-Sep-19 11:15N 28°54' W 032°38'0 0.0 26.9
2014-Sep-19 09:15N 28°54' W 032°38'0 0.1 26.9
2014-Sep-19 07:45N 28°54' W 032°38'0 0.0 26.9
2014-Sep-19 07:30N 28°54' W 032°38'0 0.8 26.9
2014-Sep-19 07:00N 28°54' W 032°38'0 1.7 26.9
2014-Sep-19 06:45N 28°54' W 032°38'0 0.0 26.9
2014-Sep-19 04:45N 28°54' W 032°38'1 2.4 26.9
2014-Sep-19 04:30N 28°54' W 032°38'1 0.6 26.9
2014-Sep-19 03:00N 28°53' W 032°37'0 0.0 26.9
2014-Sep-19 02:45N 28°53' W 032°37'0 0.0 26.9
2014-Sep-18 23:45N 28°53' W 032°37'0 0.2 26.9
2014-Sep-18 23:00N 28°53' W 032°37'2 7.5 26.9
2014-Sep-18 22:45N 28°54' W 032°35'0 0.0 26.9
2014-Sep-18 22:15N 28°54' W 032°35'0 0.0 26.9
2014-Sep-18 22:00N 28°54' W 032°35'0 0.2 26.9
2014-Sep-18 20:15N 28°54' W 032°35'0 0.1 27.0
2014-Sep-18 18:30N 28°54' W 032°35'0 0.0 27.1
2014-Sep-18 18:15N 28°54' W 032°35'1 1.5 27.1
2014-Sep-18 17:45N 28°54' W 032°34'0 0.0 27.1
2014-Sep-18 16:45N 28°54' W 032°34'0 0.0 27.1
2014-Sep-18 16:30N 28°54' W 032°34'0 0.2 27.1
2014-Sep-18 16:15N 28°54' W 032°34'0 0.0 27.1
2014-Sep-18 16:00N 28°54' W 032°34'0 0.2 27.1
2014-Sep-18 14:30N 28°54' W 032°34'0 0.0 27.1
2014-Sep-18 14:15N 28°54' W 032°34'1 0.6 27.0
2014-Sep-18 12:30N 28°55' W 032°33'0 0.1 26.9
2014-Sep-18 11:45N 28°55' W 032°33'1 5.5 26.8
2014-Sep-18 11:30N 28°56' W 032°32'0 0.0 26.8
2014-Sep-18 08:15N 28°56' W 032°32'0 0.0 26.6
2014-Sep-18 08:00N 28°56' W 032°32'1 1.5 26.5
2014-Sep-18 07:00N 28°56' W 032°34'0 0.0 26.4
2014-Sep-18 06:30N 28°56' W 032°34'0 0.0 26.3
2014-Sep-18 05:15N 28°56' W 032°34'1 1.2 26.8
2014-Sep-18 04:45N 28°56' W 032°35'0 0.0 26.8
2014-Sep-18 03:15N 28°56' W 032°35'310.0 26.8
2014-Sep-18 03:00N 28°55' W 032°32'0 0.0 26.8
2014-Sep-18 00:45N 28°55' W 032°32'0 0.0 26.8
2014-Sep-18 00:00N 28°55' W 032°32'1 0.9 26.8
2014-Sep-17 23:15N 28°55' W 032°32'1 1.0 26.8
2014-Sep-17 22:30N 28°55' W 032°31'0 0.5 26.8
2014-Sep-17 21:30N 28°55' W 032°30'0 0.0 26.8
2014-Sep-17 20:45N 28°55' W 032°30'0 0.0 26.9
2014-Sep-17 20:00N 28°55' W 032°30'0 0.0 26.9
2014-Sep-17 19:45N 28°55' W 032°30'0 0.0 26.9
2014-Sep-17 19:15N 28°55' W 032°30'0 0.4 26.9
2014-Sep-17 18:30N 28°55' W 032°30'0 0.0 27.0
2014-Sep-17 18:15N 28°55' W 032°30'1 0.7 27.0
2014-Sep-17 17:00N 28°56' W 032°29'0 0.0 27.0
2014-Sep-17 16:45N 28°56' W 032°29'0 0.5 27.0
2014-Sep-17 16:30N 28°56' W 032°29'0 0.0 26.9
2014-Sep-17 16:15N 28°56' W 032°29'1 1.0 26.9
2014-Sep-17 14:45N 28°57' W 032°28'0 0.0 27.0
2014-Sep-17 12:45N 28°57' W 032°28'1 1.7 26.8
2014-Sep-17 12:00N 28°58' W 032°29'0 0.0 26.8
2014-Sep-17 10:15N 28°58' W 032°29'1 0.4 26.8
2014-Sep-17 08:45N 28°58' W 032°29'0 0.0 26.8
2014-Sep-17 08:30N 28°58' W 032°29'0 0.4 26.8
2014-Sep-17 07:15N 28°58' W 032°30'0 0.0 26.8
2014-Sep-17 07:00N 28°58' W 032°30'1 2.8 26.8
2014-Sep-17 06:45N 28°58' W 032°29'1 0.7 26.8
2014-Sep-17 05:00N 28°57' W 032°30'0 0.0 26.8
2014-Sep-17 04:45N 28°57' W 032°30'0 0.0 26.8
2014-Sep-17 03:15N 28°57' W 032°30'0 0.0 26.8
2014-Sep-16 23:45N 28°57' W 032°30'0 0.0 26.8
2014-Sep-16 23:30N 28°57' W 032°30'0 0.6 26.9
2014-Sep-16 22:45N 28°58' W 032°29'1 0.9 26.9
2014-Sep-16 22:00N 28°57' W 032°29'0 0.0 26.9
2014-Sep-16 21:30N 28°57' W 032°29'0 0.0 26.9
2014-Sep-16 21:15N 28°57' W 032°29'1 1.0 26.9
2014-Sep-16 19:45N 28°58' W 032°27'0 0.0 27.0
2014-Sep-16 18:45N 28°58' W 032°27'1 0.5 27.0
2014-Sep-16 17:00N 28°58' W 032°26'0 0.3 27.0
2014-Sep-16 16:30N 28°58' W 032°26'1 0.6 27.0
2014-Sep-16 14:45N 28°59' W 032°26'0 0.1 27.0
2014-Sep-16 12:15N 28°59' W 032°26'1 1.7 26.9
2014-Sep-16 11:30N 29°00' W 032°25'0 0.5 26.9
2014-Sep-16 10:45N 29°00' W 032°25'0 0.0 26.9
2014-Sep-16 10:30N 29°00' W 032°25'0 0.0 26.9
2014-Sep-16 09:15N 29°00' W 032°25'0 1.1 26.9
2014-Sep-16 09:00N 29°00' W 032°25'0 0.2 26.9
2014-Sep-16 07:30N 29°00' W 032°25'1 2.2 26.9
2014-Sep-16 07:15N 29°01' W 032°25'0 0.2 26.9
2014-Sep-16 05:45N 29°01' W 032°25'0 0.0 27.0
2014-Sep-16 05:15N 29°01' W 032°25'0 1.7 27.0
2014-Sep-16 05:00N 29°01' W 032°26'0 0.1 27.0
2014-Sep-16 03:30N 29°01' W 032°26'0 0.0 27.0
2014-Sep-16 00:00N 29°01' W 032°26'0 0.0 27.1
2014-Sep-15 23:45N 29°01' W 032°26'1 1.3 27.1
2014-Sep-15 23:15N 29°01' W 032°25'1 4.4 27.1
2014-Sep-15 23:00N 29°01' W 032°26'2 2.7 27.1
2014-Sep-15 22:15N 29°01' W 032°24'0 0.0 27.1
2014-Sep-15 22:00N 29°01' W 032°24'1 0.3 27.1
2014-Sep-15 20:15N 29°01' W 032°23'1 0.8 27.1
2014-Sep-15 19:00N 29°02' W 032°22'1 3.9 27.1
2014-Sep-15 18:45N 29°01' W 032°23'1 0.7 27.1
2014-Sep-15 17:15N 29°02' W 032°22'2 3.6 27.2
2014-Sep-15 16:45N 29°03' W 032°21'0 0.0 27.2
2014-Sep-15 15:00N 29°03' W 032°21'2 1.0 27.1
2014-Sep-15 12:45N 29°05' W 032°20'1 3.9 27.0
2014-Sep-15 12:30N 29°05' W 032°21'1 1.6 27.0
2014-Sep-15 12:00N 29°06' W 032°21'0 0.0 27.0
2014-Sep-15 11:45N 29°06' W 032°21'1 1.5 27.0
2014-Sep-15 11:00N 29°07' W 032°22'1 0.2 27.0
2014-Sep-15 07:45N 29°07' W 032°23'1 3.3 27.0
2014-Sep-15 07:30N 29°08' W 032°23'0 0.0 27.0
2014-Sep-15 06:15N 29°08' W 032°23'0 0.0 27.0
2014-Sep-15 06:00N 29°08' W 032°23'0 0.7 27.0
2014-Sep-15 05:45N 29°08' W 032°23'0 0.0 27.0
2014-Sep-15 05:30N 29°08' W 032°23'1 4.9 27.0
2014-Sep-15 05:15N 29°08' W 032°24'2 1.1 27.0
2014-Sep-15 03:45N 29°08' W 032°26'0 0.0 27.1
2014-Sep-15 03:30N 29°08' W 032°26'0 0.0 27.1
2014-Sep-15 00:15N 29°08' W 032°26'1 0.3 27.2
2014-Sep-14 22:30N 29°08' W 032°27'0 0.0 27.2
2014-Sep-14 21:00N 29°08' W 032°27'0 1.5 27.3
2014-Sep-14 20:45N 29°08' W 032°27'1 0.8 27.3
2014-Sep-14 19:15N 29°07' W 032°26'0 0.0 27.5
2014-Sep-14 19:00N 29°07' W 032°26'0 0.0 27.5
2014-Sep-14 17:45N 29°07' W 032°26'0 0.0 27.6
2014-Sep-14 17:30N 29°07' W 032°26'0 1.9 27.6
2014-Sep-14 17:15N 29°07' W 032°25'0 0.2 27.6
2014-Sep-14 16:45N 29°07' W 032°26'0 0.0 27.6
2014-Sep-14 15:15N 29°07' W 032°26'0 0.0 27.7
2014-Sep-14 15:00N 29°07' W 032°26'1 0.5 27.7
2014-Sep-14 13:00N 29°08' W 032°26'1 0.7 27.4
2014-Sep-14 12:15N 29°08' W 032°25'0 0.0 27.3
2014-Sep-14 12:00N 29°08' W 032°25'0 0.0 27.2
2014-Sep-14 11:30N 29°08' W 032°25'0 1.5 27.2
2014-Sep-14 11:15N 29°08' W 032°26'0 0.1 27.1
2014-Sep-14 08:15N 29°08' W 032°26'1 1.2 27.1
2014-Sep-14 07:45N 29°08' W 032°25'0 0.0 27.1
2014-Sep-14 07:00N 29°08' W 032°25'0 0.0 27.1
2014-Sep-14 06:45N 29°08' W 032°25'1 2.7 27.1
2014-Sep-14 06:30N 29°09' W 032°25'0 0.0 27.1
2014-Sep-14 06:15N 29°09' W 032°25'0 1.1 27.2
2014-Sep-14 06:00N 29°09' W 032°25'1 1.4 27.2
2014-Sep-14 05:30N 29°09' W 032°26'0 0.0 27.2
2014-Sep-14 04:00N 29°09' W 032°26'1 4.1 27.3
2014-Sep-14 03:45N 29°09' W 032°27'0 0.0 27.3
2014-Sep-14 00:45N 29°09' W 032°27'0 0.4 27.5
2014-Sep-13 23:45N 29°09' W 032°27'0 0.4 27.5
2014-Sep-13 23:00N 29°09' W 032°27'0 0.0 27.6
2014-Sep-13 22:45N 29°09' W 032°27'0 0.0 27.6
2014-Sep-13 22:15N 29°09' W 032°27'0 0.0 27.6
2014-Sep-13 21:15N 29°09' W 032°27'2 1.4 27.7
2014-Sep-13 20:00N 29°07' W 032°25'0 0.0 27.9
2014-Sep-13 19:45N 29°07' W 032°25'0 0.0 27.9
2014-Sep-13 19:15N 29°07' W 032°25'0 0.0 28.0
2014-Sep-13 18:15N 29°07' W 032°25'0 1.3 28.3
2014-Sep-13 18:00N 29°07' W 032°25'0 0.0 28.4
2014-Sep-13 17:45N 29°07' W 032°25'0 0.0 28.4
2014-Sep-13 17:30N 29°07' W 032°25'1 2.8 28.5
2014-Sep-13 17:00N 29°08' W 032°24'0 0.0 28.6
2014-Sep-13 15:30N 29°08' W 032°24'0 0.0 27.9
2014-Sep-13 15:15N 29°08' W 032°24'1 0.6 27.8
2014-Sep-13 12:45N 29°09' W 032°22'0 1.7 27.3
2014-Sep-13 12:30N 29°09' W 032°23'1 1.5 27.2
2014-Sep-13 11:45N 29°10' W 032°23'0 0.0 27.1
2014-Sep-13 11:30N 29°10' W 032°23'0 0.0 27.0
2014-Sep-13 09:00N 29°10' W 032°23'0 0.0 27.0
2014-Sep-13 08:30N 29°10' W 032°23'0 0.2 27.0
2014-Sep-13 08:00N 29°10' W 032°23'0 0.0 27.0
2014-Sep-13 07:45N 29°10' W 032°23'0 0.0 27.0
2014-Sep-13 07:30N 29°10' W 032°23'0 0.5 27.0
2014-Sep-13 07:15N 29°10' W 032°23'1 2.7 27.0
2014-Sep-13 07:00N 29°11' W 032°23'0 0.0 27.0
2014-Sep-13 06:45N 29°11' W 032°23'0 0.0 27.0
2014-Sep-13 06:15N 29°11' W 032°23'0 0.0 27.0
2014-Sep-13 05:45N 29°11' W 032°23'0 0.3 27.0
2014-Sep-13 04:00N 29°11' W 032°23'0 0.1 27.1
2014-Sep-12 23:15N 29°11' W 032°23'0 0.0 27.2
2014-Sep-12 22:30N 29°11' W 032°23'0 0.0 27.2
2014-Sep-12 21:45N 29°11' W 032°23'0 0.0 27.2
2014-Sep-12 20:15N 29°11' W 032°23'0 0.0 27.2
2014-Sep-12 20:00N 29°11' W 032°23'0 0.0 27.2
2014-Sep-12 19:30N 29°11' W 032°23'0 0.1 27.3
2014-Sep-12 18:45N 29°11' W 032°23'0 0.0 27.3
2014-Sep-12 18:30N 29°11' W 032°23'0 0.2 27.3
2014-Sep-12 18:00N 29°11' W 032°23'0 0.0 27.3
2014-Sep-12 17:45N 29°11' W 032°23'1 0.3 27.3
2014-Sep-12 15:45N 29°11' W 032°22'0 0.0 27.3
2014-Sep-12 15:30N 29°11' W 032°22'1 0.8 27.2
2014-Sep-12 14:00N 29°12' W 032°21'1 0.4 27.3
2014-Sep-12 12:00N 29°13' W 032°21'0 0.0 27.2
2014-Sep-12 11:15N 29°13' W 032°21'0 0.0 27.2
2014-Sep-12 10:15N 29°13' W 032°21'0 0.3 27.2
2014-Sep-12 09:00N 29°13' W 032°20'1 0.8 27.2
2014-Sep-12 08:15N 29°13' W 032°21'0 0.0 27.2
2014-Sep-12 08:00N 29°13' W 032°21'1 2.3 27.2
2014-Sep-12 07:45N 29°13' W 032°20'1 2.3 27.2
2014-Sep-12 07:30N 29°13' W 032°21'0 0.0 27.2
2014-Sep-12 07:15N 29°13' W 032°21'1 0.7 27.2
2014-Sep-12 06:30N 29°13' W 032°22'0 0.0 27.2
2014-Sep-12 06:15N 29°13' W 032°22'0 0.0 27.2
2014-Sep-12 06:00N 29°13' W 032°22'0 0.0 27.2
2014-Sep-12 05:45N 29°13' W 032°22'2 1.0 27.2
2014-Sep-12 04:15N 29°14' W 032°20'0 0.0 27.2
2014-Sep-12 02:30N 29°14' W 032°20'0 0.0 27.3
2014-Sep-11 23:45N 29°14' W 032°20'0 0.6 27.3
2014-Sep-11 23:00N 29°14' W 032°20'0 0.6 27.3
2014-Sep-11 22:45N 29°14' W 032°20'1 1.6 27.3
2014-Sep-11 22:00N 29°15' W 032°20'0 0.1 27.3
2014-Sep-11 20:45N 29°15' W 032°20'0 0.0 27.3
2014-Sep-11 20:30N 29°15' W 032°20'1 0.4 27.3
2014-Sep-11 19:00N 29°15' W 032°19'0 0.0 27.5
2014-Sep-11 18:00N 29°15' W 032°19'0 0.0 27.7
2014-Sep-11 17:30N 29°15' W 032°19'0 0.0 27.9
2014-Sep-11 17:15N 29°15' W 032°19'1 0.4 27.9
2014-Sep-11 15:45N 29°15' W 032°18'0 0.0 27.7
2014-Sep-11 12:15N 29°15' W 032°18'0 0.0 27.0
2014-Sep-11 11:45N 29°15' W 032°18'1 1.1 27.0
2014-Sep-11 10:45N 29°15' W 032°17'0 0.1 26.9
2014-Sep-11 08:15N 29°16' W 032°17'0 0.0 26.9
2014-Sep-11 07:45N 29°16' W 032°17'1 0.6 26.9
2014-Sep-11 06:45N 29°16' W 032°17'0 0.0 26.9
2014-Sep-11 06:30N 29°16' W 032°17'0 0.0 26.9
2014-Sep-11 06:15N 29°16' W 032°17'1 0.2 26.9
2014-Sep-11 00:00N 29°16' W 032°16'1 2.0 27.1
2014-Sep-10 23:15N 29°17' W 032°14'0 0.0 27.2
2014-Sep-10 23:00N 29°17' W 032°14'0 0.1 27.2
2014-Sep-10 22:30N 29°17' W 032°14'2 6.2 27.2
2014-Sep-10 22:15N 29°18' W 032°13'0 0.3 27.2
2014-Sep-10 21:15N 29°18' W 032°14'   27.2
Track history (hours):
 
Tides and Currents Weather Stations Pressure Air Temp Water Temp Dewpoint Dewpoint Depression Visibility Wind Speed Wind Dir Waves Ship Positions

Drifting buoy 41997

Last reported at 2014-Sep-20 21:00 UTC. Time now 2014-Sep-20 22:05 UTC.
Position N 28°52' W 032°43'.

Water temperature 27.7 ° C

Date/timePositionNaut miles runAvg speedWind from/ knotsBaromVisibWave heightAir tempDewpointWater temp
2014-Sep-20 21:00N 28°52' W 032°43'1 1.1 27.7
2014-Sep-20 20:15N 28°51' W 032°44'1 1.1 28.0
2014-Sep-20 19:30N 28°52' W 032°43'1 3.3 28.2
2014-Sep-20 19:15N 28°51' W 032°44'0 0.2 28.3
2014-Sep-20 18:45N 28°51' W 032°44'2 2.2 28.5
2014-Sep-20 18:00N 28°52' W 032°42'0 0.0 28.5
2014-Sep-20 15:45N 28°52' W 032°42'1 0.4 28.9
2014-Sep-20 14:00N 28°53' W 032°42'1 0.6 28.0
2014-Sep-20 12:30N 28°53' W 032°42'1 0.9 27.3
2014-Sep-20 11:45N 28°54' W 032°42'1 0.7 27.1
2014-Sep-20 11:00N 28°54' W 032°42'0 0.0 27.0
2014-Sep-20 10:45N 28°54' W 032°42'0 0.0 27.0
2014-Sep-20 09:00N 28°54' W 032°42'0 0.2 26.9
2014-Sep-20 08:45N 28°54' W 032°42'0 0.0 26.9
2014-Sep-20 07:30N 28°54' W 032°42'0 1.0 26.9
2014-Sep-20 07:15N 28°54' W 032°42'0 0.0 26.9
2014-Sep-20 07:00N 28°54' W 032°42'1 2.7 26.9
2014-Sep-20 06:45N 28°54' W 032°43'1 2.2 26.9
2014-Sep-20 06:30N 28°53' W 032°43'1 0.5 27.0
2014-Sep-20 04:30N 28°53' W 032°42'0 0.0 26.9
2014-Sep-20 04:15N 28°53' W 032°42'0 0.0 27.0
2014-Sep-20 00:15N 28°53' W 032°42'0 0.5 27.0
2014-Sep-19 23:30N 28°53' W 032°42'0 0.8 27.0
2014-Sep-19 23:15N 28°53' W 032°41'1 1.1 27.0
2014-Sep-19 22:30N 28°53' W 032°40'0 0.2 27.0
2014-Sep-19 19:45N 28°53' W 032°40'0 0.8 27.1
2014-Sep-19 19:15N 28°53' W 032°40'0 0.0 27.1
2014-Sep-19 19:00N 28°53' W 032°40'0 0.6 27.1
2014-Sep-19 18:15N 28°53' W 032°39'0 0.0 27.2
2014-Sep-19 18:00N 28°53' W 032°39'0 0.2 27.2
2014-Sep-19 16:00N 28°53' W 032°39'0 0.0 27.1
2014-Sep-19 15:45N 28°53' W 032°39'1 0.4 27.1
2014-Sep-19 14:15N 28°53' W 032°39'1 0.7 27.0
2014-Sep-19 12:15N 28°53' W 032°38'1 2.6 26.9
2014-Sep-19 12:00N 28°54' W 032°38'0 0.3 26.9
2014-Sep-19 11:15N 28°54' W 032°38'0 0.0 26.9
2014-Sep-19 09:15N 28°54' W 032°38'0 0.1 26.9
2014-Sep-19 07:45N 28°54' W 032°38'0 0.0 26.9
2014-Sep-19 07:30N 28°54' W 032°38'0 0.8 26.9
2014-Sep-19 07:00N 28°54' W 032°38'0 1.7 26.9
2014-Sep-19 06:45N 28°54' W 032°38'0 0.0 26.9
2014-Sep-19 04:45N 28°54' W 032°38'1 2.4 26.9
2014-Sep-19 04:30N 28°54' W 032°38'1 0.6 26.9
2014-Sep-19 03:00N 28°53' W 032°37'0 0.0 26.9
2014-Sep-19 02:45N 28°53' W 032°37'0 0.0 26.9
2014-Sep-18 23:45N 28°53' W 032°37'0 0.2 26.9
2014-Sep-18 23:00N 28°53' W 032°37'2 7.5 26.9
2014-Sep-18 22:45N 28°54' W 032°35'0 0.0 26.9
2014-Sep-18 22:15N 28°54' W 032°35'0 0.0 26.9
2014-Sep-18 22:00N 28°54' W 032°35'0 0.2 26.9
2014-Sep-18 20:15N 28°54' W 032°35'0 0.1 27.0
2014-Sep-18 18:30N 28°54' W 032°35'0 0.0 27.1
2014-Sep-18 18:15N 28°54' W 032°35'1 1.5 27.1
2014-Sep-18 17:45N 28°54' W 032°34'0 0.0 27.1
2014-Sep-18 16:45N 28°54' W 032°34'0 0.0 27.1
2014-Sep-18 16:30N 28°54' W 032°34'0 0.2 27.1
2014-Sep-18 16:15N 28°54' W 032°34'0 0.0 27.1
2014-Sep-18 16:00N 28°54' W 032°34'0 0.2 27.1
2014-Sep-18 14:30N 28°54' W 032°34'0 0.0 27.1
2014-Sep-18 14:15N 28°54' W 032°34'1 0.6 27.0
2014-Sep-18 12:30N 28°55' W 032°33'0 0.1 26.9
2014-Sep-18 11:45N 28°55' W 032°33'1 5.5 26.8
2014-Sep-18 11:30N 28°56' W 032°32'0 0.0 26.8
2014-Sep-18 08:15N 28°56' W 032°32'0 0.0 26.6
2014-Sep-18 08:00N 28°56' W 032°32'1 1.5 26.5
2014-Sep-18 07:00N 28°56' W 032°34'0 0.0 26.4
2014-Sep-18 06:30N 28°56' W 032°34'0 0.0 26.3
2014-Sep-18 05:15N 28°56' W 032°34'1 1.2 26.8
2014-Sep-18 04:45N 28°56' W 032°35'0 0.0 26.8
2014-Sep-18 03:15N 28°56' W 032°35'310.0 26.8
2014-Sep-18 03:00N 28°55' W 032°32'0 0.0 26.8
2014-Sep-18 00:45N 28°55' W 032°32'0 0.0 26.8
2014-Sep-18 00:00N 28°55' W 032°32'1 0.9 26.8
2014-Sep-17 23:15N 28°55' W 032°32'1 1.0 26.8
2014-Sep-17 22:30N 28°55' W 032°31'0 0.5 26.8
2014-Sep-17 21:30N 28°55' W 032°30'0 0.0 26.8
2014-Sep-17 20:45N 28°55' W 032°30'0 0.0 26.9
2014-Sep-17 20:00N 28°55' W 032°30'0 0.0 26.9
2014-Sep-17 19:45N 28°55' W 032°30'0 0.0 26.9
2014-Sep-17 19:15N 28°55' W 032°30'0 0.4 26.9
2014-Sep-17 18:30N 28°55' W 032°30'0 0.0 27.0
2014-Sep-17 18:15N 28°55' W 032°30'1 0.7 27.0
2014-Sep-17 17:00N 28°56' W 032°29'0 0.0 27.0
2014-Sep-17 16:45N 28°56' W 032°29'0 0.5 27.0
2014-Sep-17 16:30N 28°56' W 032°29'0 0.0 26.9
2014-Sep-17 16:15N 28°56' W 032°29'1 1.0 26.9
2014-Sep-17 14:45N 28°57' W 032°28'0 0.0 27.0
2014-Sep-17 12:45N 28°57' W 032°28'1 1.7 26.8
2014-Sep-17 12:00N 28°58' W 032°29'0 0.0 26.8
2014-Sep-17 10:15N 28°58' W 032°29'1 0.4 26.8
2014-Sep-17 08:45N 28°58' W 032°29'0 0.0 26.8
2014-Sep-17 08:30N 28°58' W 032°29'0 0.4 26.8
2014-Sep-17 07:15N 28°58' W 032°30'0 0.0 26.8
2014-Sep-17 07:00N 28°58' W 032°30'1 2.8 26.8
2014-Sep-17 06:45N 28°58' W 032°29'1 0.7 26.8
2014-Sep-17 05:00N 28°57' W 032°30'0 0.0 26.8
2014-Sep-17 04:45N 28°57' W 032°30'0 0.0 26.8
2014-Sep-17 03:15N 28°57' W 032°30'0 0.0 26.8
2014-Sep-16 23:45N 28°57' W 032°30'0 0.0 26.8
2014-Sep-16 23:30N 28°57' W 032°30'0 0.6 26.9
2014-Sep-16 22:45N 28°58' W 032°29'1 0.9 26.9
2014-Sep-16 22:00N 28°57' W 032°29'0 0.0 26.9
2014-Sep-16 21:30N 28°57' W 032°29'0 0.0 26.9
2014-Sep-16 21:15N 28°57' W 032°29'1 1.0 26.9
2014-Sep-16 19:45N 28°58' W 032°27'0 0.0 27.0
2014-Sep-16 18:45N 28°58' W 032°27'1 0.5 27.0
2014-Sep-16 17:00N 28°58' W 032°26'0 0.3 27.0
2014-Sep-16 16:30N 28°58' W 032°26'1 0.6 27.0
2014-Sep-16 14:45N 28°59' W 032°26'0 0.1 27.0
2014-Sep-16 12:15N 28°59' W 032°26'1 1.7 26.9
2014-Sep-16 11:30N 29°00' W 032°25'0 0.5 26.9
2014-Sep-16 10:45N 29°00' W 032°25'0 0.0 26.9
2014-Sep-16 10:30N 29°00' W 032°25'0 0.0 26.9
2014-Sep-16 09:15N 29°00' W 032°25'0 1.1 26.9
2014-Sep-16 09:00N 29°00' W 032°25'0 0.2 26.9
2014-Sep-16 07:30N 29°00' W 032°25'1 2.2 26.9
2014-Sep-16 07:15N 29°01' W 032°25'0 0.2 26.9
2014-Sep-16 05:45N 29°01' W 032°25'0 0.0 27.0
2014-Sep-16 05:15N 29°01' W 032°25'0 1.7 27.0
2014-Sep-16 05:00N 29°01' W 032°26'0 0.1 27.0
2014-Sep-16 03:30N 29°01' W 032°26'0 0.0 27.0
2014-Sep-16 00:00N 29°01' W 032°26'0 0.0 27.1
2014-Sep-15 23:45N 29°01' W 032°26'1 1.3 27.1
2014-Sep-15 23:15N 29°01' W 032°25'1 4.4 27.1
2014-Sep-15 23:00N 29°01' W 032°26'2 2.7 27.1
2014-Sep-15 22:15N 29°01' W 032°24'0 0.0 27.1
2014-Sep-15 22:00N 29°01' W 032°24'1 0.3 27.1
2014-Sep-15 20:15N 29°01' W 032°23'1 0.8 27.1
2014-Sep-15 19:00N 29°02' W 032°22'1 3.9 27.1
2014-Sep-15 18:45N 29°01' W 032°23'1 0.7 27.1
2014-Sep-15 17:15N 29°02' W 032°22'2 3.6 27.2
2014-Sep-15 16:45N 29°03' W 032°21'0 0.0 27.2
2014-Sep-15 15:00N 29°03' W 032°21'2 1.0 27.1
2014-Sep-15 12:45N 29°05' W 032°20'1 3.9 27.0
2014-Sep-15 12:30N 29°05' W 032°21'1 1.6 27.0
2014-Sep-15 12:00N 29°06' W 032°21'0 0.0 27.0
2014-Sep-15 11:45N 29°06' W 032°21'1 1.5 27.0
2014-Sep-15 11:00N 29°07' W 032°22'1 0.2 27.0
2014-Sep-15 07:45N 29°07' W 032°23'1 3.3 27.0
2014-Sep-15 07:30N 29°08' W 032°23'0 0.0 27.0
2014-Sep-15 06:15N 29°08' W 032°23'0 0.0 27.0
2014-Sep-15 06:00N 29°08' W 032°23'0 0.7 27.0
2014-Sep-15 05:45N 29°08' W 032°23'0 0.0 27.0
2014-Sep-15 05:30N 29°08' W 032°23'1 4.9 27.0
2014-Sep-15 05:15N 29°08' W 032°24'2 1.1 27.0
2014-Sep-15 03:45N 29°08' W 032°26'0 0.0 27.1
2014-Sep-15 03:30N 29°08' W 032°26'0 0.0 27.1
2014-Sep-15 00:15N 29°08' W 032°26'1 0.3 27.2
2014-Sep-14 22:30N 29°08' W 032°27'0 0.0 27.2
2014-Sep-14 21:00N 29°08' W 032°27'0 1.5 27.3
2014-Sep-14 20:45N 29°08' W 032°27'1 0.8 27.3
2014-Sep-14 19:15N 29°07' W 032°26'0 0.0 27.5
2014-Sep-14 19:00N 29°07' W 032°26'0 0.0 27.5
2014-Sep-14 17:45N 29°07' W 032°26'0 0.0 27.6
2014-Sep-14 17:30N 29°07' W 032°26'0 1.9 27.6
2014-Sep-14 17:15N 29°07' W 032°25'0 0.2 27.6
2014-Sep-14 16:45N 29°07' W 032°26'0 0.0 27.6
2014-Sep-14 15:15N 29°07' W 032°26'0 0.0 27.7
2014-Sep-14 15:00N 29°07' W 032°26'1 0.5 27.7
2014-Sep-14 13:00N 29°08' W 032°26'1 0.7 27.4
2014-Sep-14 12:15N 29°08' W 032°25'0 0.0 27.3
2014-Sep-14 12:00N 29°08' W 032°25'0 0.0 27.2
2014-Sep-14 11:30N 29°08' W 032°25'0 1.5 27.2
2014-Sep-14 11:15N 29°08' W 032°26'0 0.1 27.1
2014-Sep-14 08:15N 29°08' W 032°26'1 1.2 27.1
2014-Sep-14 07:45N 29°08' W 032°25'0 0.0 27.1
2014-Sep-14 07:00N 29°08' W 032°25'0 0.0 27.1
2014-Sep-14 06:45N 29°08' W 032°25'1 2.7 27.1
2014-Sep-14 06:30N 29°09' W 032°25'0 0.0 27.1
2014-Sep-14 06:15N 29°09' W 032°25'0 1.1 27.2
2014-Sep-14 06:00N 29°09' W 032°25'1 1.4 27.2
2014-Sep-14 05:30N 29°09' W 032°26'0 0.0 27.2
2014-Sep-14 04:00N 29°09' W 032°26'1 4.1 27.3
2014-Sep-14 03:45N 29°09' W 032°27'0 0.0 27.3
2014-Sep-14 00:45N 29°09' W 032°27'0 0.4 27.5
2014-Sep-13 23:45N 29°09' W 032°27'0 0.4 27.5
2014-Sep-13 23:00N 29°09' W 032°27'0 0.0 27.6
2014-Sep-13 22:45N 29°09' W 032°27'0 0.0 27.6
2014-Sep-13 22:15N 29°09' W 032°27'0 0.0 27.6
2014-Sep-13 21:15N 29°09' W 032°27'2 1.4 27.7
2014-Sep-13 20:00N 29°07' W 032°25'0 0.0 27.9
2014-Sep-13 19:45N 29°07' W 032°25'0 0.0 27.9
2014-Sep-13 19:15N 29°07' W 032°25'0 0.0 28.0
2014-Sep-13 18:15N 29°07' W 032°25'0 1.3 28.3
2014-Sep-13 18:00N 29°07' W 032°25'0 0.0 28.4
2014-Sep-13 17:45N 29°07' W 032°25'0 0.0 28.4
2014-Sep-13 17:30N 29°07' W 032°25'1 2.8 28.5
2014-Sep-13 17:00N 29°08' W 032°24'0 0.0 28.6
2014-Sep-13 15:30N 29°08' W 032°24'0 0.0 27.9
2014-Sep-13 15:15N 29°08' W 032°24'1 0.6 27.8
2014-Sep-13 12:45N 29°09' W 032°22'0 1.7 27.3
2014-Sep-13 12:30N 29°09' W 032°23'1 1.5 27.2
2014-Sep-13 11:45N 29°10' W 032°23'0 0.0 27.1
2014-Sep-13 11:30N 29°10' W 032°23'0 0.0 27.0
2014-Sep-13 09:00N 29°10' W 032°23'0 0.0 27.0
2014-Sep-13 08:30N 29°10' W 032°23'0 0.2 27.0
2014-Sep-13 08:00N 29°10' W 032°23'0 0.0 27.0
2014-Sep-13 07:45N 29°10' W 032°23'0 0.0 27.0
2014-Sep-13 07:30N 29°10' W 032°23'0 0.5 27.0
2014-Sep-13 07:15N 29°10' W 032°23'1 2.7 27.0
2014-Sep-13 07:00N 29°11' W 032°23'0 0.0 27.0
2014-Sep-13 06:45N 29°11' W 032°23'0 0.0 27.0
2014-Sep-13 06:15N 29°11' W 032°23'0 0.0 27.0
2014-Sep-13 05:45N 29°11' W 032°23'0 0.3 27.0
2014-Sep-13 04:00N 29°11' W 032°23'0 0.1 27.1
2014-Sep-12 23:15N 29°11' W 032°23'0 0.0 27.2
2014-Sep-12 22:30N 29°11' W 032°23'0 0.0 27.2
2014-Sep-12 21:45N 29°11' W 032°23'0 0.0 27.2
2014-Sep-12 20:15N 29°11' W 032°23'0 0.0 27.2
2014-Sep-12 20:00N 29°11' W 032°23'0 0.0 27.2
2014-Sep-12 19:30N 29°11' W 032°23'0 0.1 27.3
2014-Sep-12 18:45N 29°11' W 032°23'0 0.0 27.3
2014-Sep-12 18:30N 29°11' W 032°23'0 0.2 27.3
2014-Sep-12 18:00N 29°11' W 032°23'0 0.0 27.3
2014-Sep-12 17:45N 29°11' W 032°23'1 0.3 27.3
2014-Sep-12 15:45N 29°11' W 032°22'0 0.0 27.3
2014-Sep-12 15:30N 29°11' W 032°22'1 0.8 27.2
2014-Sep-12 14:00N 29°12' W 032°21'1 0.4 27.3
2014-Sep-12 12:00N 29°13' W 032°21'0 0.0 27.2
2014-Sep-12 11:15N 29°13' W 032°21'0 0.0 27.2
2014-Sep-12 10:15N 29°13' W 032°21'0 0.3 27.2
2014-Sep-12 09:00N 29°13' W 032°20'1 0.8 27.2
2014-Sep-12 08:15N 29°13' W 032°21'0 0.0 27.2
2014-Sep-12 08:00N 29°13' W 032°21'1 2.3 27.2
2014-Sep-12 07:45N 29°13' W 032°20'1 2.3 27.2
2014-Sep-12 07:30N 29°13' W 032°21'0 0.0 27.2
2014-Sep-12 07:15N 29°13' W 032°21'1 0.7 27.2
2014-Sep-12 06:30N 29°13' W 032°22'0 0.0 27.2
2014-Sep-12 06:15N 29°13' W 032°22'0 0.0 27.2
2014-Sep-12 06:00N 29°13' W 032°22'0 0.0 27.2
2014-Sep-12 05:45N 29°13' W 032°22'2 1.0 27.2
2014-Sep-12 04:15N 29°14' W 032°20'0 0.0 27.2
2014-Sep-12 02:30N 29°14' W 032°20'0 0.0 27.3
2014-Sep-11 23:45N 29°14' W 032°20'0 0.6 27.3
2014-Sep-11 23:00N 29°14' W 032°20'0 0.6 27.3
2014-Sep-11 22:45N 29°14' W 032°20'1 1.6 27.3
2014-Sep-11 22:00N 29°15' W 032°20'0 0.1 27.3
2014-Sep-11 20:45N 29°15' W 032°20'0 0.0 27.3
2014-Sep-11 20:30N 29°15' W 032°20'1 0.4 27.3
2014-Sep-11 19:00N 29°15' W 032°19'0 0.0 27.5
2014-Sep-11 18:00N 29°15' W 032°19'0 0.0 27.7
2014-Sep-11 17:30N 29°15' W 032°19'0 0.0 27.9
2014-Sep-11 17:15N 29°15' W 032°19'1 0.4 27.9
2014-Sep-11 15:45N 29°15' W 032°18'0 0.0 27.7
2014-Sep-11 12:15N 29°15' W 032°18'0 0.0 27.0
2014-Sep-11 11:45N 29°15' W 032°18'1 1.1 27.0
2014-Sep-11 10:45N 29°15' W 032°17'0 0.1 26.9
2014-Sep-11 08:15N 29°16' W 032°17'0 0.0 26.9
2014-Sep-11 07:45N 29°16' W 032°17'1 0.6 26.9
2014-Sep-11 06:45N 29°16' W 032°17'0 0.0 26.9
2014-Sep-11 06:30N 29°16' W 032°17'0 0.0 26.9
2014-Sep-11 06:15N 29°16' W 032°17'1 0.2 26.9
2014-Sep-11 00:00N 29°16' W 032°16'1 2.0 27.1
2014-Sep-10 23:15N 29°17' W 032°14'0 0.0 27.2
2014-Sep-10 23:00N 29°17' W 032°14'0 0.1 27.2
2014-Sep-10 22:30N 29°17' W 032°14'2 6.2 27.2
2014-Sep-10 22:15N 29°18' W 032°13'0 0.3 27.2
2014-Sep-10 21:15N 29°18' W 032°14'   27.2

Dump ship's entire track history